Time;durP1;ratioP1;P1;durP2;ratioP2;P2;SDS_P1;SDS_P2;PMS_P1;PMS_P2;Temp;Humidity;BMP_temperature;BMP_pressure;BME280_temperature;BME280_humidity;BME280_pressure;Samples;Min_cycle;Max_cycle;Signal;HPM_P1;HPM_P2
2021/01/29 12:29:02;;;;;;;;;;;;;;;;;;3841806;37;19950;-63
2021/01/29 12:31:44;;;;;;;;;;;;;;;;;;4406073;32;19986;-64
2021/01/29 12:34:18;;;;;;;;;;;;;;;;;;4403747;32;20002;-63
2021/01/29 12:36:49;;;;;;;;;;;;;;;;;;4276345;32;72289;-62
2021/01/29 12:39:22;;;;;;;;;;;;;;;;;;4340094;32;20039;-61
2021/01/29 12:42:14;;;;;;;;;;;;;;;;;;4348514;32;19978;-62
2021/01/29 12:44:47;;;;;;;;;;;;;;;;;;4345388;32;19971;-62
2021/01/29 12:49:48;;;;;;;4.80;3.35;;;;;;;;;;3842647;37;20435;-58
2021/01/29 12:52:38;;;;;;;11.05;4.28;;;;;;;;;;4392534;32;20164;-59
2021/01/29 12:55:13;;;;;;;8.40;3.80;;;;;;;;;;4390581;32;20103;-59
2021/01/29 12:57:39;;;;;;;9.40;4.30;;;;;;;;;;4402796;32;20081;-60
2021/01/29 13:00:15;;;;;;;11.18;3.90;;;;;;;;;;4392801;32;20061;-58
2021/01/29 13:02:47;;;;;;;10.02;4.75;;;;;;;;;;4411002;32;20082;-58
2021/01/29 13:05:18;;;;;;;8.75;4.43;;;;;;;;;;4413077;32;20507;-62
2021/01/29 13:08:36;;;;;;;9.00;4.70;;;;;;;;;;4400876;32;20081;-59
2021/01/29 13:11:17;;;;;;;7.75;3.83;;;;;;;;;;4375009;32;20178;-60
2021/01/29 13:14:23;;;;;;;9.68;4.32;;;;;;;;;;4404328;32;20077;-59
2021/01/29 13:17:21;;;;;;;9.10;4.45;;;;;;;;;;4403449;32;20080;-61
2021/01/29 13:19:48;;;;;;;9.93;4.97;;;;;;;;;;4397288;32;20534;-62
2021/01/29 13:22:20;;;;;;;10.80;4.68;;;;;;;;;;4392571;32;20107;-59
2021/01/29 13:25:10;;;;;;;10.10;4.70;;;;;;;;;;4415035;32;20511;-59
2021/01/29 13:27:48;;;;;;;12.45;4.43;;;;;;;;;;4391531;32;20108;-59
2021/01/29 13:30:24;;;;;;;12.68;4.53;;;;;;;;;;4398556;32;20050;-59
2021/01/29 13:32:50;;;;;;;8.52;4.55;;;;;;;;;;4392378;32;20080;-58
2021/01/29 13:35:24;;;;;;;10.77;4.53;;;;;;;;;;4394569;32;20081;-60
2021/01/29 13:37:51;;;;;;;11.48;4.53;;;;;;;;;;4390392;32;20435;-60
2021/01/29 13:40:27;;;;;;;16.42;6.37;;;;;;;;;;4403919;32;20103;-61
2021/01/29 13:42:54;;;;;;;12.57;5.93;;;;;;;;;;4376244;32;20093;-59
2021/01/29 13:45:27;;;;;;;13.13;5.65;;;;;;;;;;4374727;32;20093;-59
2021/01/29 13:48:19;;;;;;;12.80;6.07;;;;;;;;;;4391250;32;20157;-60
2021/01/29 13:50:53;;;;;;;11.45;5.30;;;;;;;;;;4415711;32;20073;-60
2021/01/29 13:53:27;;;;;;;12.82;5.32;;;;;;;;;;4388783;32;20070;-61
2021/01/29 13:55:54;;;;;;;10.95;5.65;;;;;;;;;;4392441;32;20081;-61
2021/01/29 13:58:49;;;;;;;13.13;5.78;;;;;;;;;;4412328;32;20138;-60
2021/01/29 14:01:18;;;;;;;11.85;5.65;;;;;;;;;;4401148;32;20150;-61
2021/01/29 14:03:49;;;;;;;8.93;5.03;;;;;;;;;;4375762;32;20499;-61
2021/01/29 14:06:15;;;;;;;10.55;5.10;;;;;;;;;;4406386;32;20066;-60
2021/01/29 14:08:41;;;;;;;14.27;6.70;;;;;;;;;;4399951;32;20070;-59
2021/01/29 14:11:29;;;;;;;10.68;4.95;;;;;;;;;;4391163;32;20137;-60
2021/01/29 14:14:13;;;;;;;11.38;4.93;;;;;;;;;;4389317;32;20073;-58
2021/01/29 14:16:50;;;;;;;8.93;5.30;;;;;;;;;;4414702;32;20061;-59
2021/01/29 14:19:38;;;;;;;13.88;5.05;;;;;;;;;;4400545;32;20141;-58
2021/01/29 14:22:06;;;;;;;13.73;5.68;;;;;;;;;;4404277;32;20161;-56
2021/01/29 14:24:48;;;;;;;12.43;5.25;;;;;;;;;;4394713;32;20115;-58
2021/01/29 14:27:31;;;;;;;10.68;5.30;;;;;;;;;;4384054;32;20094;-59
2021/01/29 14:30:22;;;;;;;14.07;5.70;;;;;;;;;;4379235;32;20076;-59
2021/01/29 14:33:03;;;;;;;10.18;5.05;;;;;;;;;;4404084;32;20081;-59
2021/01/29 14:35:29;;;;;;;14.10;4.87;;;;;;;;;;4390732;32;20066;-58
2021/01/29 14:38:10;;;;;;;10.35;5.10;;;;;;;;;;4393423;32;20074;-58
2021/01/29 14:40:57;;;;;;;12.43;4.82;;;;;;;;;;4395065;32;20152;-60
2021/01/29 14:43:51;;;;;;;12.10;5.28;;;;;;;;;;4387376;32;20093;-60
2021/01/29 14:46:37;;;;;;;14.02;5.28;;;;;;;;;;4400794;32;20182;-57
2021/01/29 14:49:16;;;;;;;12.07;5.70;;;;;;;;;;4392866;32;20129;-59
2021/01/29 14:52:10;;;;;;;9.80;5.12;;;;;;;;;;4385983;32;20484;-59
2021/01/29 14:54:37;;;;;;;12.75;5.43;;;;;;;;;;4395455;32;20535;-60
2021/01/29 14:57:14;;;;;;;10.48;4.70;;;;;;;;;;4365108;32;20101;-58
2021/01/29 14:59:52;;;;;;;10.73;5.07;;;;;;;;;;4369809;32;20164;-60
2021/01/29 15:02:30;;;;;;;10.20;5.03;;;;;;;;;;4383080;32;20085;-61
2021/01/29 15:04:58;;;;;;;11.73;5.32;;;;;;;;;;4380653;32;20089;-63
2021/01/29 15:07:29;;;;;;;8.93;5.47;;;;;;;;;;4383815;32;20085;-62
2021/01/29 15:10:17;;;;;;;13.15;5.22;;;;;;;;;;4381419;32;20503;-61
2021/01/29 15:12:45;;;;;;;11.77;5.57;;;;;;;;;;4396878;32;20523;-60
2021/01/29 15:15:43;;;;;;;11.60;5.47;;;;;;;;;;4378705;32;20066;-61
2021/01/29 15:18:21;;;;;;;10.15;5.15;;;;;;;;;;4379805;32;20073;-59
2021/01/29 15:20:51;;;;;;;13.70;5.22;;;;;;;;;;4379132;32;20078;-59
2021/01/29 15:23:22;;;;;;;11.43;5.00;;;;;;;;;;4384666;32;20057;-60
2021/01/29 15:25:54;;;;;;;15.30;5.78;;;;;;;;;;4391920;32;20098;-62
2021/01/29 15:28:50;;;;;;;14.55;5.62;;;;;;;;;;4397996;32;20580;-60
2021/01/29 15:31:18;;;;;;;13.68;5.25;;;;;;;;;;4400325;32;20092;-60
2021/01/29 15:33:46;;;;;;;11.10;5.35;;;;;;;;;;4393684;32;20070;-59
2021/01/29 15:36:15;;;;;;;12.02;5.62;;;;;;;;;;4377944;32;20104;-59
2021/01/29 15:38:52;;;;;;;8.98;4.90;;;;;;;;;;4390533;32;20062;-59
2021/01/29 15:41:39;;;;;;;9.00;5.18;;;;;;;;;;4378589;32;20081;-60
2021/01/29 15:44:10;;;;;;;11.27;4.75;;;;;;;;;;4390012;32;20106;-59
2021/01/29 15:46:39;;;;;;;13.77;5.40;;;;;;;;;;4390133;32;20101;-60
2021/01/29 15:49:07;;;;;;;14.43;4.85;;;;;;;;;;4393041;32;20085;-61
2021/01/29 15:51:45;;;;;;;11.40;4.97;;;;;;;;;;4393962;32;20169;-58
2021/01/29 15:54:24;;;;;;;12.50;4.93;;;;;;;;;;4392701;32;20078;-60
2021/01/29 15:57:03;;;;;;;13.32;5.43;;;;;;;;;;4392145;32;20154;-59
2021/01/29 15:59:38;;;;;;;10.40;5.20;;;;;;;;;;4391739;32;20054;-61
2021/01/29 16:02:07;;;;;;;12.75;5.22;;;;;;;;;;4397474;32;20477;-59
2021/01/29 16:04:36;;;;;;;12.00;4.90;;;;;;;;;;4410465;32;20069;-61
2021/01/29 16:07:11;;;;;;;10.10;4.85;;;;;;;;;;4400976;32;20526;-59
2021/01/29 16:09:38;;;;;;;15.52;4.68;;;;;;;;;;4414386;32;20097;-59
2021/01/29 16:12:42;;;;;;;9.10;4.57;;;;;;;;;;4407451;32;20104;-60
2021/01/29 16:15:11;;;;;;;13.52;5.07;;;;;;;;;;4410055;32;20074;-59
2021/01/29 16:18:04;;;;;;;12.45;4.68;;;;;;;;;;4403663;32;20063;-60
2021/01/29 16:20:58;;;;;;;10.65;4.60;;;;;;;;;;4379080;32;20081;-59
2021/01/29 16:23:26;;;;;;;11.68;5.03;;;;;;;;;;4390034;32;20070;-59
2021/01/29 16:26:06;;;;;;;8.13;4.37;;;;;;;;;;4378939;32;20059;-59
2021/01/29 16:28:37;;;;;;;10.68;4.68;;;;;;;;;;4377940;32;20077;-61
2021/01/29 16:31:11;;;;;;;8.45;4.55;;;;;;;;;;4377724;32;20085;-59
2021/01/29 16:33:37;;;;;;;9.13;5.18;;;;;;;;;;4377930;32;20516;-60
2021/01/29 16:36:21;;;;;;;8.25;4.18;;;;;;;;;;4389673;32;20162;-59
2021/01/29 16:38:48;;;;;;;9.75;4.80;;;;;;;;;;4393428;32;20069;-60
2021/01/29 16:41:29;;;;;;;10.80;4.60;;;;;;;;;;4365441;32;20066;-59
2021/01/29 16:44:21;;;;;;;10.13;4.40;;;;;;;;;;4377382;32;20069;-60
2021/01/29 16:46:47;;;;;;;10.75;4.75;;;;;;;;;;4389804;32;20170;-60
2021/01/29 16:49:27;;;;;;;9.77;5.25;;;;;;;;;;4377274;32;20159;-60
2021/01/29 16:51:57;;;;;;;13.15;5.30;;;;;;;;;;4368368;32;20128;-59
2021/01/29 16:54:46;;;;;;;10.35;5.35;;;;;;;;;;4377805;32;20081;-59
2021/01/29 16:57:16;;;;;;;9.20;4.57;;;;;;;;;;4390699;32;20090;-59
2021/01/29 16:59:42;;;;;;;8.27;5.15;;;;;;;;;;4365377;32;20249;-59
2021/01/29 17:02:18;;;;;;;9.90;4.80;;;;;;;;;;4394895;32;20129;-60
2021/01/29 17:04:46;;;;;;;11.35;4.97;;;;;;;;;;4366537;32;20178;-59
2021/01/29 17:07:13;;;;;;;10.57;5.10;;;;;;;;;;4354880;32;20157;-59
2021/01/29 17:09:42;;;;;;;8.45;5.18;;;;;;;;;;4378600;32;20145;-59
2021/01/29 17:12:25;;;;;;;11.60;5.37;;;;;;;;;;4390255;32;20519;-60
2021/01/29 17:14:52;;;;;;;9.35;5.20;;;;;;;;;;4393974;32;20173;-59
2021/01/29 17:17:17;;;;;;;13.02;6.68;;;;;;;;;;4377144;32;20491;-59
2021/01/29 17:19:43;;;;;;;11.12;4.85;;;;;;;;;;4380819;32;20090;-60
2021/01/29 17:22:21;;;;;;;10.63;4.75;;;;;;;;;;4389558;32;20181;-60
2021/01/29 17:24:50;;;;;;;9.15;4.87;;;;;;;;;;4379600;32;20070;-59
2021/01/29 17:27:20;;;;;;;11.88;5.40;;;;;;;;;;4365117;32;20165;-60
2021/01/29 17:29:55;;;;;;;8.93;4.68;;;;;;;;;;4378432;32;20074;-60
2021/01/29 17:32:28;;;;;;;10.52;5.18;;;;;;;;;;4385533;32;20085;-59
2021/01/29 17:35:05;;;;;;;11.18;5.30;;;;;;;;;;4370950;32;20135;-63
2021/01/29 17:37:32;;;;;;;8.15;4.97;;;;;;;;;;4408145;32;20062;-60
2021/01/29 17:39:58;;;;;;;13.23;5.97;;;;;;;;;;4385039;32;20096;-60
2021/01/29 17:42:29;;;;;;;;;;;;;;;;;;4395517;32;20097;-60
2021/01/29 17:45:00;;;;;;;9.07;4.97;;;;;;;;;;4394121;32;20081;-61
2021/01/29 17:47:38;;;;;;;13.55;5.18;;;;;;;;;;4381341;32;20150;-59
2021/01/29 17:50:31;;;;;;;13.70;5.28;;;;;;;;;;4381844;32;20097;-59
2021/01/29 17:52:59;;;;;;;11.93;5.62;;;;;;;;;;4389769;32;20452;-60
2021/01/29 17:55:34;;;;;;;8.80;4.97;;;;;;;;;;4380240;32;20435;-59
2021/01/29 17:58:15;;;;;;;11.18;5.07;;;;;;;;;;4379852;32;20065;-60
2021/01/29 18:01:09;;;;;;;10.27;5.05;;;;;;;;;;4398457;32;20089;-60
2021/01/29 18:03:51;;;;;;;9.13;4.93;;;;;;;;;;4386512;32;20058;-60
2021/01/29 18:06:21;;;;;;;10.70;5.75;;;;;;;;;;4382272;32;20089;-59
2021/01/29 18:08:49;;;;;;;11.00;4.90;;;;;;;;;;4382135;32;20076;-58
2021/01/29 18:11:28;;;;;;;9.10;4.93;;;;;;;;;;4400134;32;20089;-60
2021/01/29 18:13:55;;;;;;;10.18;4.85;;;;;;;;;;4378943;32;20071;-59
2021/01/29 18:16:21;;;;;;;10.45;5.10;;;;;;;;;;4394078;32;20069;-60
2021/01/29 18:18:47;;;;;;;8.60;5.03;;;;;;;;;;4385691;32;20234;-60
2021/01/29 18:21:20;;;;;;;9.73;5.43;;;;;;;;;;4395383;32;20066;-60
2021/01/29 18:23:49;;;;;;;10.77;5.37;;;;;;;;;;4384406;32;20078;-60
2021/01/29 18:26:14;;;;;;;10.85;5.32;;;;;;;;;;4392212;32;20213;-59
2021/01/29 18:28:40;;;;;;;10.65;5.85;;;;;;;;;;4379008;32;20500;-60
2021/01/29 18:31:08;;;;;;;14.77;5.55;;;;;;;;;;4388166;32;20508;-59
2021/01/29 18:33:39;;;;;;;8.30;4.87;;;;;;;;;;4393107;32;20498;-59
2021/01/29 18:36:06;;;;;;;9.63;5.20;;;;;;;;;;4397219;32;20172;-60
2021/01/29 18:38:32;;;;;;;9.43;6.28;;;;;;;;;;4382367;32;20077;-59
2021/01/29 18:41:01;;;;;;;11.15;5.93;;;;;;;;;;4390723;32;20177;-59
2021/01/29 18:43:27;;;;;;;10.82;5.72;;;;;;;;;;4380642;32;20073;-60
2021/01/29 18:45:53;;;;;;;9.55;5.55;;;;;;;;;;4385304;32;20082;-59
2021/01/29 18:48:19;;;;;;;12.88;6.07;;;;;;;;;;4367422;32;20174;-59
2021/01/29 18:50:45;;;;;;;10.77;5.80;;;;;;;;;;4379989;32;20097;-59
2021/01/29 18:53:12;;;;;;;9.65;5.68;;;;;;;;;;4394799;32;20451;-59
2021/01/29 18:55:38;;;;;;;12.65;5.22;;;;;;;;;;4386592;32;20075;-61
2021/01/29 18:58:04;;;;;;;10.25;5.75;;;;;;;;;;4399158;32;20089;-59
2021/01/29 19:00:30;;;;;;;13.50;6.18;;;;;;;;;;4393040;32;20162;-59
2021/01/29 19:02:55;;;;;;;9.52;5.57;;;;;;;;;;4388008;32;20058;-60
2021/01/29 19:05:22;;;;;;;;;;;;;;;;;;4383856;32;20084;-60
2021/01/29 19:07:48;;;;;;;10.13;5.80;;;;;;;;;;4382536;32;20000;-61
2021/01/29 19:10:14;;;;;;;10.63;5.78;;;;;;;;;;4383556;32;20066;-60
2021/01/29 19:12:40;;;;;;;9.68;6.22;;;;;;;;;;4380761;32;20082;-59
2021/01/29 19:15:06;;;;;;;9.15;5.53;;;;;;;;;;4392483;32;20085;-60
2021/01/29 19:17:32;;;;;;;14.00;6.22;;;;;;;;;;4393242;32;20516;-60
2021/01/29 19:19:58;;;;;;;12.98;6.75;;;;;;;;;;4380775;32;20076;-60
2021/01/29 19:22:24;;;;;;;11.32;6.37;;;;;;;;;;4389666;32;20098;-60
2021/01/29 19:24:49;;;;;;;;;;;;;;;;;;4377403;32;20429;-60
2021/01/29 19:27:15;;;;;;;10.45;6.35;;;;;;;;;;4397193;32;20375;-59
2021/01/29 19:29:41;;;;;;;10.82;6.30;;;;;;;;;;4390855;32;20147;-59
2021/01/29 19:32:07;;;;;;;10.98;6.75;;;;;;;;;;4397864;32;20177;-60
2021/01/29 19:34:33;;;;;;;9.82;6.15;;;;;;;;;;4395008;32;20532;-61
2021/01/29 19:36:59;;;;;;;11.30;6.80;;;;;;;;;;4391035;32;20157;-59
2021/01/29 19:39:25;;;;;;;11.57;6.80;;;;;;;;;;4384348;32;20154;-59
2021/01/29 19:41:51;;;;;;;14.73;7.20;;;;;;;;;;4382235;32;20069;-59
2021/01/29 19:44:17;;;;;;;10.65;6.78;;;;;;;;;;4385379;32;20197;-59
2021/01/29 19:46:43;;;;;;;16.33;8.25;;;;;;;;;;4385611;32;20065;-60
2021/01/29 19:49:09;;;;;;;11.57;6.78;;;;;;;;;;4397664;32;20248;-60
2021/01/29 19:51:34;;;;;;;13.52;6.93;;;;;;;;;;4396771;32;20100;-60
2021/01/29 19:54:00;;;;;;;13.62;6.90;;;;;;;;;;4396131;32;20489;-59
2021/01/29 19:56:39;;;;;;;13.13;7.35;;;;;;;;;;4394475;32;20582;-58
2021/01/29 19:59:05;;;;;;;12.05;7.32;;;;;;;;;;4391620;32;20089;-59
2021/01/29 20:01:31;;;;;;;14.07;8.32;;;;;;;;;;4380294;32;20089;-59
2021/01/29 20:03:57;;;;;;;14.38;7.90;;;;;;;;;;4382264;32;20078;-60
2021/01/29 20:06:23;;;;;;;14.15;6.90;;;;;;;;;;4369427;32;20097;-59
2021/01/29 20:08:49;;;;;;;13.23;7.15;;;;;;;;;;4402119;32;20150;-60
2021/01/29 20:11:14;;;;;;;;;;;;;;;;;;4378214;32;20599;-60
2021/01/29 20:13:40;;;;;;;12.20;6.72;;;;;;;;;;4389541;32;20386;-60
2021/01/29 20:16:11;;;;;;;14.02;6.97;;;;;;;;;;4378613;32;20476;-60
2021/01/29 20:18:37;;;;;;;11.10;6.50;;;;;;;;;;4367594;32;20155;-59
2021/01/29 20:21:02;;;;;;;;;;;;;;;;;;4390685;32;20094;-59
2021/01/29 20:23:28;;;;;;;13.52;6.50;;;;;;;;;;4379798;32;19977;-58
2021/01/29 20:25:57;;;;;;;;;;;;;;;;;;4382003;32;20081;-58
2021/01/29 20:28:23;;;;;;;13.38;7.62;;;;;;;;;;4398036;32;19978;-59
2021/01/29 20:30:50;;;;;;;13.88;8.02;;;;;;;;;;4368182;32;20062;-59
2021/01/29 20:33:16;;;;;;;14.57;8.40;;;;;;;;;;4381346;32;20093;-60
2021/01/29 20:35:42;;;;;;;13.90;7.97;;;;;;;;;;4367361;32;20592;-59
2021/01/29 20:38:08;;;;;;;;;;;;;;;;;;4404173;32;20089;-59
2021/01/29 20:40:34;;;;;;;14.27;8.23;;;;;;;;;;4394088;32;19999;-60
2021/01/29 20:43:00;;;;;;;16.08;8.73;;;;;;;;;;4370030;32;20467;-59
2021/01/29 20:45:26;;;;;;;;;;;;;;;;;;4394851;32;20161;-60
2021/01/29 20:47:56;;;;;;;13.27;7.80;;;;;;;;;;4383180;32;19992;-58
2021/01/29 20:50:35;;;;;;;14.10;8.60;;;;;;;;;;4378453;32;20069;-60
2021/01/29 20:53:01;;;;;;;14.13;9.02;;;;;;;;;;4391064;32;20109;-62
2021/01/29 20:55:26;;;;;;;;;;;;;;;;;;4398391;32;20516;-60
2021/01/29 20:57:52;;;;;;;15.25;9.07;;;;;;;;;;4389636;32;19993;-59
2021/01/29 21:00:19;;;;;;;;;;;;;;;;;;4376653;32;20081;-59
2021/01/29 21:02:56;;;;;;;16.58;9.77;;;;;;;;;;4381628;32;20047;-59
2021/01/29 21:05:22;;;;;;;16.25;9.77;;;;;;;;;;4370157;32;20062;-60
2021/01/29 21:07:48;;;;;;;;;;;;;;;;;;4377699;32;20082;-59
2021/01/29 21:10:15;;;;;;;20.65;10.82;;;;;;;;;;4382459;32;20506;-59
2021/01/29 21:12:41;;;;;;;17.90;10.57;;;;;;;;;;4384356;32;20056;-59
2021/01/29 21:15:07;;;;;;;;;;;;;;;;;;4376547;32;20085;-60
2021/01/29 21:17:32;;;;;;;17.27;9.38;;;;;;;;;;4365298;32;19973;-60
2021/01/29 21:19:58;;;;;;;16.85;9.73;;;;;;;;;;4373188;32;20084;-60
2021/01/29 21:22:24;;;;;;;17.65;10.80;;;;;;;;;;4373662;32;20067;-61
2021/01/29 21:24:50;;;;;;;21.70;11.00;;;;;;;;;;4387691;32;20506;-60
2021/01/29 21:27:15;;;;;;;16.90;10.23;;;;;;;;;;4387901;32;20545;-59
2021/01/29 21:29:41;;;;;;;18.23;9.48;;;;;;;;;;4373814;32;20141;-60
2021/01/29 21:32:06;;;;;;;;;;;;;;;;;;4378746;32;20096;-59
2021/01/29 21:34:32;;;;;;;21.95;11.05;;;;;;;;;;4382774;32;19976;-60
2021/01/29 21:36:59;;;;;;;17.08;9.80;;;;;;;;;;4374811;32;20081;-59
2021/01/29 21:39:25;;;;;;;17.48;9.93;;;;;;;;;;4375941;32;20090;-59
2021/01/29 21:42:02;;;;;;;16.42;10.13;;;;;;;;;;4373041;32;20089;-59
2021/01/29 21:44:28;;;;;;;17.73;10.80;;;;;;;;;;4373365;32;20070;-59
2021/01/29 21:47:01;;;;;;;17.35;9.98;;;;;;;;;;4396468;32;20081;-60
2021/01/29 21:49:27;;;;;;;19.42;10.10;;;;;;;;;;4372018;32;20159;-60
2021/01/29 21:51:52;;;;;;;;;;;;;;;;;;4381868;32;20641;-59
2021/01/29 21:54:18;;;;;;;18.08;10.15;;;;;;;;;;4383095;32;20056;-59
2021/01/29 21:56:46;;;;;;;17.75;9.50;;;;;;;;;;4379880;32;20078;-57
2021/01/29 21:59:12;;;;;;;18.20;10.95;;;;;;;;;;4371173;32;20518;-59
2021/01/29 22:01:37;;;;;;;;;;;;;;;;;;4372590;32;20082;-60
2021/01/29 22:04:03;;;;;;;17.25;10.30;;;;;;;;;;4382031;32;19970;-60
2021/01/29 22:06:29;;;;;;;17.15;9.65;;;;;;;;;;4380569;32;20094;-59
2021/01/29 22:08:54;;;;;;;;;;;;;;;;;;4386647;32;20074;-60
2021/01/29 22:11:21;;;;;;;18.42;10.93;;;;;;;;;;4387184;32;20065;-60
2021/01/29 22:13:47;;;;;;;20.70;10.85;;;;;;;;;;4388334;32;20078;-59
2021/01/29 22:16:13;;;;;;;20.58;12.07;;;;;;;;;;4387736;32;20061;-60
2021/01/29 22:18:39;;;;;;;17.23;10.25;;;;;;;;;;4373704;32;20071;-59
2021/01/29 22:21:05;;;;;;;;;;;;;;;;;;4372762;32;20144;-59
2021/01/29 22:23:30;;;;;;;19.45;9.95;;;;;;;;;;4384642;32;19961;-60
2021/01/29 22:25:56;;;;;;;13.95;8.30;;;;;;;;;;4376194;32;20530;-59
2021/01/29 22:28:22;;;;;;;12.18;8.27;;;;;;;;;;4391628;32;20089;-59
2021/01/29 22:30:47;;;;;;;13.82;8.23;;;;;;;;;;4372245;32;20073;-59
2021/01/29 22:33:13;;;;;;;15.55;8.35;;;;;;;;;;4377403;32;20517;-60
2021/01/29 22:35:39;;;;;;;;;;;;;;;;;;4383691;32;20067;-61
2021/01/29 22:38:05;;;;;;;12.35;7.95;;;;;;;;;;4385507;32;19974;-58
2021/01/29 22:40:45;;;;;;;13.03;7.33;;;;;;;;;;3846774;37;20071;-60
2021/01/29 22:43:11;;;;;;;11.70;8.20;;;;;;;;;;4399990;32;20579;-59
2021/01/29 22:45:36;;;;;;;13.45;9.05;;;;;;;;;;4390772;32;20520;-59
2021/01/29 22:48:02;;;;;;;;;;;;;;;;;;4406812;32;20093;-60
2021/01/29 22:50:28;;;;;;;13.73;8.10;;;;;;;;;;4406520;32;20088;-59
2021/01/29 22:52:53;;;;;;;;;;;;;;;;;;4398006;32;20161;-59
2021/01/29 22:55:19;;;;;;;13.30;8.55;;;;;;;;;;4395852;32;19981;-59
2021/01/29 22:57:45;;;;;;;;;;;;;;;;;;4392143;32;20080;-59
2021/01/29 23:00:25;;;;;;;16.87;8.95;;;;;;;;;;4393846;32;19981;-60
2021/01/29 23:02:51;;;;;;;16.30;9.35;;;;;;;;;;4408640;32;20069;-61
2021/01/29 23:05:17;;;;;;;;;;;;;;;;;;4395184;32;20077;-60
2021/01/29 23:07:43;;;;;;;13.98;8.77;;;;;;;;;;4392687;32;19972;-61
2021/01/29 23:10:09;;;;;;;;;;;;;;;;;;4405534;32;20066;-59
2021/01/29 23:12:35;;;;;;;18.23;9.73;;;;;;;;;;4402967;32;19981;-59
2021/01/29 23:15:01;;;;;;;;;;;;;;;;;;4406083;32;20157;-60
2021/01/29 23:17:27;;;;;;;14.93;8.52;;;;;;;;;;4402222;32;20447;-60
2021/01/29 23:19:52;;;;;;;;;;;;;;;;;;4390369;32;20146;-59
2021/01/29 23:22:19;;;;;;;17.80;9.95;;;;;;;;;;4397180;32;20052;-60
2021/01/29 23:24:45;;;;;;;13.77;8.80;;;;;;;;;;4397361;32;20106;-60
2021/01/29 23:27:13;;;;;;;;;;;;;;;;;;4395240;32;20486;-59
2021/01/29 23:29:39;;;;;;;16.87;8.75;;;;;;;;;;4411901;32;20375;-59
2021/01/29 23:32:05;;;;;;;;;;;;;;;;;;4404450;32;20074;-60
2021/01/29 23:34:31;;;;;;;14.87;8.35;;;;;;;;;;4385802;32;19984;-59
2021/01/29 23:36:56;;;;;;;;;;;;;;;;;;4390974;32;20078;-60
2021/01/29 23:39:22;;;;;;;20.67;10.63;;;;;;;;;;4401865;32;19976;-59
2021/01/29 23:41:51;;;;;;;17.42;9.68;;;;;;;;;;4395623;32;20128;-60
2021/01/29 23:44:21;;;;;;;16.65;8.48;;;;;;;;;;4394142;32;20188;-60
2021/01/29 23:46:52;;;;;;;15.15;8.80;;;;;;;;;;4390885;32;20100;-60
2021/01/29 23:49:17;;;;;;;16.67;9.88;;;;;;;;;;4381681;32;20504;-59
2021/01/29 23:51:43;;;;;;;;;;;;;;;;;;4389008;32;20093;-60
2021/01/29 23:54:09;;;;;;;17.55;10.48;;;;;;;;;;4378251;32;19980;-60
2021/01/29 23:56:34;;;;;;;;;;;;;;;;;;4380189;32;20078;-59
2021/01/29 23:59:01;;;;;;;16.30;9.18;;;;;;;;;;4390059;32;19988;-59
